Time;durP1;ratioP1;P1;durP2;ratioP2;P2;SDS_P1;SDS_P2;PMS_P1;PMS_P2;Temp;Humidity;BMP_temperature;BMP_pressure;BME280_temperature;BME280_humidity;BME280_pressure;Samples;Min_cycle;Max_cycle;Signal;HPM_P1;HPM_P2
2022/08/23 00:01:28;;;;;;;1038.72;623.78;;;;;;;;;;5110030;28;20027;-72
2022/08/23 00:07:29;;;;;;;1028.78;623.85;;;;;;;;;;5110982;27;20988;-71
2022/08/23 00:09:56;;;;;;;1025.05;639.38;;;;;;;;;;5111339;28;20031;-71
2022/08/23 00:12:22;;;;;;;1029.88;642.85;;;;;;;;;;5111334;28;20434;-70
2022/08/23 00:14:52;;;;;;;1040.40;606.45;;;;;;;;;;5110806;28;20024;-71
2022/08/23 00:17:18;;;;;;;1038.15;609.17;;;;;;;;;;5110146;28;20111;-71
2022/08/23 00:19:44;;;;;;;1034.72;611.55;;;;;;;;;;5111209;28;20048;-70
2022/08/23 00:22:11;;;;;;;1034.38;626.95;;;;;;;;;;5111217;28;20020;-70
2022/08/23 00:24:37;;;;;;;1034.75;628.35;;;;;;;;;;5111075;28;20031;-70
2022/08/23 00:27:03;;;;;;;1041.10;598.13;;;;;;;;;;5110506;28;20032;-71
2022/08/23 00:30:49;;;;;;;1030.28;625.17;;;;;;;;;;5111612;27;20457;-70
2022/08/23 00:33:15;;;;;;;1027.97;628.65;;;;;;;;;;5111332;28;20030;-70
2022/08/23 00:35:41;;;;;;;1030.13;606.42;;;;;;;;;;5110899;28;20031;-70
2022/08/23 00:38:09;;;;;;;1029.80;610.47;;;;;;;;;;5111484;28;20023;-70
2022/08/23 00:40:35;;;;;;;1035.57;641.30;;;;;;;;;;5111172;28;20100;-70
2022/08/23 00:48:58;;;;;;;1034.28;604.63;;;;;;;;;;5111226;27;20397;-70
2022/08/23 00:51:27;;;;;;;1032.97;607.00;;;;;;;;;;5111428;28;20387;-70
2022/08/23 00:53:56;;;;;;;1024.38;623.40;;;;;;;;;;5111459;28;20031;-71
2022/08/23 00:58:42;;;;;;;1029.22;622.17;;;;;;;;;;5111231;27;20380;-70
2022/08/23 01:03:15;;;;;;;1040.10;597.00;;;;;;;;;;5111250;27;20459;-70
2022/08/23 01:05:47;;;;;;;1042.78;602.22;;;;;;;;;;5111427;28;20471;-70
2022/08/23 01:09:17;;;;;;;1036.22;608.70;;;;;;;;;;5111279;27;20796;-70
2022/08/23 01:11:49;;;;;;;1047.90;598.15;;;;;;;;;;5111387;28;20059;-70
2022/08/23 01:15:25;;;;;;;1042.82;600.95;;;;;;;;;;5111819;27;20422;-70
2022/08/23 01:17:56;;;;;;;1041.57;603.65;;;;;;;;;;5110824;28;20387;-71
2022/08/23 01:20:23;;;;;;;1051.03;600.53;;;;;;;;;;5111304;28;20020;-71
2022/08/23 01:25:20;;;;;;;1043.07;593.88;;;;;;;;;;5070659;28;20845;-70
2022/08/23 01:28:13;;;;;;;1051.40;597.55;;;;;;;;;;5111538;27;20389;-70
2022/08/23 01:31:42;;;;;;;1047.47;617.13;;;;;;;;;;5070441;28;20846;-70
2022/08/23 01:34:09;;;;;;;1044.75;613.03;;;;;;;;;;5070772;28;20104;-70
2022/08/23 01:36:36;;;;;;;1043.65;619.72;;;;;;;;;;5069489;28;20418;-70
2022/08/23 01:39:04;;;;;;;1038.78;617.80;;;;;;;;;;5070332;28;20021;-71
2022/08/23 01:41:30;;;;;;;1051.95;600.33;;;;;;;;;;5070644;28;20464;-70
2022/08/23 01:45:38;;;;;;;1049.47;594.00;;;;;;;;;;5111096;27;20969;-70
2022/08/23 01:48:23;;;;;;;1054.38;592.15;;;;;;;;;;5111894;27;20470;-70
2022/08/23 01:50:49;;;;;;;1047.38;610.20;;;;;;;;;;5111259;28;20095;-71
2022/08/23 01:56:36;;;;;;;1049.63;599.03;;;;;;;;;;5111769;27;20388;-70
2022/08/23 01:59:03;;;;;;;1052.25;608.70;;;;;;;;;;5111062;28;20024;-70
2022/08/23 02:01:29;;;;;;;1044.40;604.38;;;;;;;;;;5111225;28;20027;-70
2022/08/23 02:03:55;;;;;;;1043.45;611.70;;;;;;;;;;5109918;28;20437;-71
2022/08/23 02:06:21;;;;;;;1042.35;610.67;;;;;;;;;;5110901;28;20028;-71
2022/08/23 02:09:00;;;;;;;1042.03;607.55;;;;;;;;;;5111288;28;20027;-71
2022/08/23 02:11:27;;;;;;;1050.13;594.05;;;;;;;;;;5111092;28;20508;-70
2022/08/23 02:14:22;;;;;;;1057.40;590.13;;;;;;;;;;5111571;27;20389;-70
2022/08/23 02:16:50;;;;;;;1059.28;600.05;;;;;;;;;;5111286;28;20028;-70
2022/08/23 02:19:16;;;;;;;1071.45;595.33;;;;;;;;;;5109512;28;20023;-71
2022/08/23 02:21:43;;;;;;;1066.03;589.65;;;;;;;;;;5111199;28;20038;-70
2022/08/23 02:26:43;;;;;;;1054.80;594.38;;;;;;;;;;5111486;27;20409;-70
2022/08/23 02:29:09;;;;;;;1066.63;597.83;;;;;;;;;;5111807;28;20030;-70
2022/08/23 02:33:43;;;;;;;1048.80;601.38;;;;;;;;;;5111323;27;20415;-70
2022/08/23 02:36:09;;;;;;;1058.57;585.90;;;;;;;;;;5111308;28;20031;-70
2022/08/23 02:40:11;;;;;;;1062.22;590.25;;;;;;;;;;5111646;27;20389;-70
2022/08/23 02:42:38;;;;;;;1065.85;591.55;;;;;;;;;;5110914;28;20034;-69
2022/08/23 02:45:04;;;;;;;1050.30;600.13;;;;;;;;;;5111250;28;20016;-70
2022/08/23 02:47:30;;;;;;;1057.25;602.42;;;;;;;;;;5109510;28;20054;-70
2022/08/23 02:49:57;;;;;;;1056.53;602.05;;;;;;;;;;5111141;28;20548;-70
2022/08/23 02:52:23;;;;;;;1066.93;603.40;;;;;;;;;;5109771;28;20521;-70
2022/08/23 02:54:49;;;;;;;1066.43;600.85;;;;;;;;;;5109381;28;20062;-70
2022/08/23 02:57:27;;;;;;;1067.30;592.85;;;;;;;;;;5111921;27;20908;-70
2022/08/23 02:59:54;;;;;;;1079.93;578.88;;;;;;;;;;5111238;28;20055;-70
2022/08/23 03:02:20;;;;;;;1083.88;577.88;;;;;;;;;;5110828;28;20039;-70
2022/08/23 03:06:43;;;;;;;1064.18;592.40;;;;;;;;;;5111688;27;20465;-70
2022/08/23 03:09:10;;;;;;;1075.75;573.35;;;;;;;;;;5110796;28;20035;-70
2022/08/23 03:12:34;;;;;;;1072.10;575.97;;;;;;;;;;5111630;27;20543;-70
2022/08/23 03:15:00;;;;;;;1068.22;587.50;;;;;;;;;;5111256;28;20020;-70
2022/08/23 03:18:35;;;;;;;1073.18;574.75;;;;;;;;;;5111632;27;20426;-70
2022/08/23 03:21:02;;;;;;;1067.25;590.30;;;;;;;;;;5111281;28;20470;-70
2022/08/23 03:24:54;;;;;;;1060.30;587.20;;;;;;;;;;5111763;27;20397;-70
2022/08/23 03:27:20;;;;;;;1065.88;584.53;;;;;;;;;;5111306;28;20024;-70
2022/08/23 03:29:46;;;;;;;1069.95;577.78;;;;;;;;;;5110879;28;20024;-70
2022/08/23 03:34:20;;;;;;;1045.65;595.95;;;;;;;;;;5111577;27;20873;-70
2022/08/23 03:36:46;;;;;;;1063.57;583.03;;;;;;;;;;5109529;28;20051;-70
2022/08/23 03:39:12;;;;;;;1062.53;578.63;;;;;;;;;;5111296;28;20028;-70
2022/08/23 03:41:39;;;;;;;1057.85;582.45;;;;;;;;;;5111243;28;20024;-70
2022/08/23 03:44:05;;;;;;;1046.38;592.50;;;;;;;;;;5110870;28;20099;-70
2022/08/23 03:50:14;;;;;;;1051.45;587.15;;;;;;;;;;5112063;27;20445;-70
2022/08/23 03:52:40;;;;;;;1055.20;584.05;;;;;;;;;;5110930;28;20050;-70
2022/08/23 03:59:43;;;;;;;1039.20;584.38;;;;;;;;;;5111068;27;20396;-70
2022/08/23 04:02:10;;;;;;;1048.30;595.72;;;;;;;;;;5111284;28;20032;-70
2022/08/23 04:04:37;;;;;;;1038.90;597.85;;;;;;;;;;5111142;28;20564;-70
2022/08/23 04:07:03;;;;;;;1033.35;596.55;;;;;;;;;;5111106;28;20502;-71
2022/08/23 04:09:29;;;;;;;1041.82;598.88;;;;;;;;;;5111272;28;20051;-70
2022/08/23 04:11:56;;;;;;;1053.47;596.22;;;;;;;;;;5109384;28;20027;-71
2022/08/23 04:16:36;;;;;;;1032.90;594.83;;;;;;;;;;5111504;27;20384;-71
2022/08/23 04:20:51;;;;;;;1059.20;609.17;;;;;;;;;;5110942;27;20587;-71
2022/08/23 04:23:17;;;;;;;1066.78;598.42;;;;;;;;;;5090901;28;20472;-70
2022/08/23 04:25:44;;;;;;;1071.63;583.50;;;;;;;;;;5090570;28;20036;-70
2022/08/23 04:28:10;;;;;;;1067.05;581.95;;;;;;;;;;5090992;28;20044;-70
2022/08/23 04:30:37;;;;;;;1062.25;584.05;;;;;;;;;;5089524;28;20021;-70
2022/08/23 04:33:03;;;;;;;1072.22;584.85;;;;;;;;;;5090272;28;20362;-70
2022/08/23 04:35:29;;;;;;;1072.45;580.63;;;;;;;;;;5090747;28;20029;-70
2022/08/23 04:37:56;;;;;;;1064.43;596.28;;;;;;;;;;5090592;28;20021;-70
2022/08/23 04:43:07;;;;;;;1058.97;599.00;;;;;;;;;;5090764;28;20085;-71
2022/08/23 04:45:34;;;;;;;1064.85;594.60;;;;;;;;;;5090466;28;20021;-71
2022/08/23 04:48:00;;;;;;;1068.93;594.47;;;;;;;;;;5090094;28;20142;-71
2022/08/23 04:50:26;;;;;;;1068.43;601.70;;;;;;;;;;5090419;28;20073;-70
2022/08/23 04:52:52;;;;;;;1078.85;584.72;;;;;;;;;;5090293;28;20024;-70
2022/08/23 04:58:37;;;;;;;1074.05;589.72;;;;;;;;;;5111577;27;20388;-70
2022/08/23 05:01:06;;;;;;;1066.05;587.15;;;;;;;;;;5111128;28;20020;-71
2022/08/23 05:06:03;;;;;;;1071.00;585.03;;;;;;;;;;5112039;27;20380;-70
2022/08/23 05:13:26;;;;;;;1100.18;614.20;;;;;;;;;;5111553;27;20792;-70
2022/08/23 05:16:41;;;;;;;1116.45;608.60;;;;;;;;;;5111076;27;20414;-70
2022/08/23 05:23:38;;;;;;;846.33;569.28;;;;;;;;;;5111119;27;20426;-70
2022/08/23 05:28:21;;;;;;;729.65;614.10;;;;;;;;;;5111635;27;20899;-70
2022/08/23 05:30:58;;;;;;;808.33;585.83;;;;;;;;;;5110802;28;20483;-70
2022/08/23 05:37:18;;;;;;;775.83;574.67;;;;;;;;;;5070589;28;20392;-70
2022/08/23 05:39:44;;;;;;;721.83;617.20;;;;;;;;;;5069447;28;20408;-70
2022/08/23 05:42:26;;;;;;;703.50;617.92;;;;;;;;;;5112046;27;20393;-70
2022/08/23 05:44:53;;;;;;;740.70;623.97;;;;;;;;;;5110964;28;20383;-71
2022/08/23 05:47:19;;;;;;;649.97;581.80;;;;;;;;;;5109930;28;20060;-71
2022/08/23 05:49:45;;;;;;;707.45;627.15;;;;;;;;;;5111259;28;20065;-71
2022/08/23 05:52:33;;;;;;;10.60;5.65;;;;;;;;;;5091282;27;20885;-71
2022/08/23 05:55:34;;;;;;;8.32;5.68;;;;;;;;;;5111755;27;20919;-70
2022/08/23 05:58:00;;;;;;;11.05;6.25;;;;;;;;;;5105042;28;20392;-67
2022/08/23 06:00:27;;;;;;;12.52;6.07;;;;;;;;;;5118407;28;20543;-69
2022/08/23 06:02:53;;;;;;;10.27;6.95;;;;;;;;;;5110835;28;20020;-71
2022/08/23 06:05:39;;;;;;;11.30;7.25;;;;;;;;;;5111178;27;20888;-73
2022/08/23 06:08:05;;;;;;;10.63;6.28;;;;;;;;;;5109823;28;20382;-72
2022/08/23 06:14:19;;;;;;;14.30;6.13;;;;;;;;;;5131762;27;20112;-73
2022/08/23 06:16:46;;;;;;;9.73;6.78;;;;;;;;;;5109821;28;20036;-75
2022/08/23 06:19:13;;;;;;;10.10;5.32;;;;;;;;;;5111215;28;20395;-74
2022/08/23 06:21:40;;;;;;;10.02;5.28;;;;;;;;;;5100775;28;20480;-74
2022/08/23 06:24:06;;;;;;;10.10;5.22;;;;;;;;;;5109646;28;20476;-74
2022/08/23 06:26:35;;;;;;;9.45;5.57;;;;;;;;;;5101956;28;20036;-74
2022/08/23 06:31:07;;;;;;;9.70;5.38;;;;;;;;;;5110952;27;20461;-74
2022/08/23 06:35:40;;;;;;;8.80;5.45;;;;;;;;;;5109995;27;20404;-78
2022/08/23 06:40:00;;;;;;;11.35;4.47;;;;;;;;;;5110099;27;20414;-75
2022/08/23 06:42:26;;;;;;;8.50;4.60;;;;;;;;;;5090919;28;20099;-77
2022/08/23 06:44:52;;;;;;;9.02;5.00;;;;;;;;;;5097565;28;20506;-72
2022/08/23 06:48:42;;;;;;;17.30;6.20;;;;;;;;;;5066158;28;20403;-72
2022/08/23 06:51:39;;;;;;;11.93;6.35;;;;;;;;;;5083394;28;20476;-72
2022/08/23 06:54:07;;;;;;;11.02;5.97;;;;;;;;;;5067774;28;20103;-71
2022/08/23 06:57:42;;;;;;;12.23;6.40;;;;;;;;;;5108216;27;20384;-73
2022/08/23 07:00:31;;;;;;;9.50;5.22;;;;;;;;;;5107526;27;20437;-72
2022/08/23 07:04:33;;;;;;;10.95;5.70;;;;;;;;;;5109191;27;20927;-72
2022/08/23 07:07:00;;;;;;;8.27;4.90;;;;;;;;;;5109902;28;20099;-72
2022/08/23 07:09:27;;;;;;;75.93;16.02;;;;;;;;;;5109622;28;20460;-71
2022/08/23 07:13:38;;;;;;;77.93;16.50;;;;;;;;;;5109958;27;20903;-71
2022/08/23 07:16:04;;;;;;;17.73;6.53;;;;;;;;;;5102962;28;20128;-72
2022/08/23 07:18:30;;;;;;;16.83;7.15;;;;;;;;;;5098711;28;20539;-72
2022/08/23 07:20:57;;;;;;;92.65;17.45;;;;;;;;;;5106342;28;20035;-70
2022/08/23 07:23:24;;;;;;;18.98;6.45;;;;;;;;;;5109263;28;20024;-71
2022/08/23 07:25:51;;;;;;;104.00;18.88;;;;;;;;;;5109695;28;20471;-71
2022/08/23 07:28:17;;;;;;;22.88;7.55;;;;;;;;;;5110761;28;20129;-72
2022/08/23 07:30:44;;;;;;;7.45;4.97;;;;;;;;;;5109106;28;20077;-72
2022/08/23 07:33:10;;;;;;;400.52;71.10;;;;;;;;;;5110661;28;20040;-73
2022/08/23 07:35:37;;;;;;;45.40;12.45;;;;;;;;;;5107126;28;20475;-72
2022/08/23 07:40:10;;;;;;;13.70;6.20;;;;;;;;;;5058473;28;20411;-71
2022/08/23 07:43:53;;;;;;;10.88;5.80;;;;;;;;;;5107531;27;20458;-69
2022/08/23 07:46:20;;;;;;;9.13;5.07;;;;;;;;;;5108014;28;20031;-70
2022/08/23 07:48:46;;;;;;;10.93;5.15;;;;;;;;;;5108196;28;20023;-71
2022/08/23 07:53:02;;;;;;;17.33;6.22;;;;;;;;;;5107751;27;20428;-74
2022/08/23 07:55:28;;;;;;;11.48;5.57;;;;;;;;;;5106346;28;20024;-72
2022/08/23 07:57:54;;;;;;;64.22;15.88;;;;;;;;;;5099816;28;20024;-74
2022/08/23 08:02:28;;;;;;;14.65;7.90;;;;;;;;;;5093478;27;20779;-74
2022/08/23 08:04:55;;;;;;;72.88;15.38;;;;;;;;;;5095086;28;20038;-73
2022/08/23 08:07:21;;;;;;;13.50;7.22;;;;;;;;;;5094788;28;20051;-74
2022/08/23 08:09:47;;;;;;;49.08;12.95;;;;;;;;;;5102960;28;20111;-74
2022/08/23 08:12:13;;;;;;;38.03;10.80;;;;;;;;;;5095156;28;20089;-74
2022/08/23 08:14:40;;;;;;;26.70;9.23;;;;;;;;;;5094122;28;20427;-73
2022/08/23 08:17:07;;;;;;;48.08;10.88;;;;;;;;;;5105555;28;20709;-75
2022/08/23 08:19:33;;;;;;;20.88;7.38;;;;;;;;;;5104897;28;20024;-75
2022/08/23 08:22:33;;;;;;;21.98;9.80;;;;;;;;;;5085499;27;21067;-73
2022/08/23 08:25:00;;;;;;;17.27;7.75;;;;;;;;;;5086841;28;20737;-74
2022/08/23 08:27:26;;;;;;;28.60;9.43;;;;;;;;;;5090212;28;20017;-74
2022/08/23 08:29:53;;;;;;;15.50;6.00;;;;;;;;;;5090600;28;20086;-75
2022/08/23 08:32:20;;;;;;;9.30;5.85;;;;;;;;;;5081730;28;20021;-73
2022/08/23 08:34:46;;;;;;;14.88;7.45;;;;;;;;;;5069977;28;20064;-71
2022/08/23 08:37:12;;;;;;;10.85;6.22;;;;;;;;;;5084248;28;20048;-71
2022/08/23 08:40:11;;;;;;;9.40;5.68;;;;;;;;;;5101086;27;20467;-72
2022/08/23 08:42:37;;;;;;;30.45;10.68;;;;;;;;;;5096778;28;20032;-71
2022/08/23 08:45:05;;;;;;;13.48;5.93;;;;;;;;;;5105997;28;20103;-75
2022/08/23 08:47:32;;;;;;;16.00;6.35;;;;;;;;;;5102266;28;20032;-72
2022/08/23 08:50:01;;;;;;;12.25;6.53;;;;;;;;;;5097065;28;20043;-72
2022/08/23 08:52:40;;;;;;;11.43;6.55;;;;;;;;;;5093414;28;20020;-71
2022/08/23 08:55:06;;;;;;;202.98;39.83;;;;;;;;;;5099128;28;20035;-73
2022/08/23 08:57:43;;;;;;;20.73;7.50;;;;;;;;;;5099400;28;20043;-73
2022/08/23 09:01:04;;;;;;;57.22;15.18;;;;;;;;;;5094359;27;20413;-73
2022/08/23 09:04:02;;;;;;;11.52;6.40;;;;;;;;;;5129504;27;20837;-73
2022/08/23 09:06:33;;;;;;;10.88;6.05;;;;;;;;;;5108985;28;20043;-73
2022/08/23 09:09:02;;;;;;;19.07;6.17;;;;;;;;;;5107921;28;20027;-74
2022/08/23 09:11:34;;;;;;;8.88;6.05;;;;;;;;;;5107827;28;20022;-72
2022/08/23 09:14:21;;;;;;;152.38;28.33;;;;;;;;;;5107186;28;20035;-73
2022/08/23 09:16:52;;;;;;;11.38;6.35;;;;;;;;;;5106156;28;20107;-71
2022/08/23 09:19:19;;;;;;;12.75;6.43;;;;;;;;;;5092501;28;20022;-74
2022/08/23 09:21:48;;;;;;;14.38;6.47;;;;;;;;;;5088639;28;20035;-76
2022/08/23 09:24:14;;;;;;;176.65;38.00;;;;;;;;;;5090485;28;20450;-75
2022/08/23 09:26:41;;;;;;;17.02;7.22;;;;;;;;;;5090916;28;20035;-74
2022/08/23 09:29:27;;;;;;;10.60;6.53;;;;;;;;;;5089828;28;20036;-77
2022/08/23 09:32:00;;;;;;;43.28;10.80;;;;;;;;;;5090464;28;20379;-75
2022/08/23 09:34:30;;;;;;;28.58;10.23;;;;;;;;;;5093645;28;20067;-75
2022/08/23 09:37:09;;;;;;;58.47;14.95;;;;;;;;;;5089579;28;20024;-77
2022/08/23 09:39:37;;;;;;;18.30;7.90;;;;;;;;;;5101071;28;20066;-77
2022/08/23 09:42:03;;;;;;;14.93;7.07;;;;;;;;;;5091125;28;20089;-76
2022/08/23 09:44:40;;;;;;;43.95;13.13;;;;;;;;;;5105802;28;20415;-76
2022/08/23 09:47:08;;;;;;;12.82;6.63;;;;;;;;;;5110354;28;20059;-76
2022/08/23 09:49:35;;;;;;;17.95;7.03;;;;;;;;;;5108338;28;20024;-76
2022/08/23 09:52:37;;;;;;;15.32;7.60;;;;;;;;;;5103138;27;20420;-75
2022/08/23 09:55:11;;;;;;;13.90;7.45;;;;;;;;;;5100194;28;20020;-76
2022/08/23 09:57:38;;;;;;;16.38;8.27;;;;;;;;;;5101758;28;20020;-77
2022/08/23 10:00:16;;;;;;;11.20;6.18;;;;;;;;;;5104234;28;20495;-76
2022/08/23 10:02:43;;;;;;;11.70;6.10;;;;;;;;;;5104084;28;20115;-75
2022/08/23 10:05:15;;;;;;;10.88;6.82;;;;;;;;;;5100229;28;20471;-77
2022/08/23 10:07:43;;;;;;;10.48;5.65;;;;;;;;;;5092049;28;20032;-77
2022/08/23 10:10:30;;;;;;;9.65;5.80;;;;;;;;;;5099975;28;20092;-77
2022/08/23 10:12:57;;;;;;;9.30;6.15;;;;;;;;;;5092633;28;20491;-77
2022/08/23 10:15:32;;;;;;;11.63;6.28;;;;;;;;;;5100925;28;20028;-76
2022/08/23 10:18:02;;;;;;;11.55;5.60;;;;;;;;;;5090262;28;20017;-78
2022/08/23 10:20:36;;;;;;;11.75;6.07;;;;;;;;;;5089270;28;20016;-80
2022/08/23 10:23:14;;;;;;;9.52;6.72;;;;;;;;;;5106597;28;20050;-79
2022/08/23 10:25:42;;;;;;;8.75;5.75;;;;;;;;;;5106373;28;20103;-79
2022/08/23 10:31:13;;;;;;;8.80;6.20;;;;;;;;;;5096061;28;20034;-75
2022/08/23 10:33:42;;;;;;;10.38;6.07;;;;;;;;;;5092726;28;20051;-77
2022/08/23 10:36:23;;;;;;;8.80;6.60;;;;;;;;;;5097954;28;20496;-73
2022/08/23 10:38:56;;;;;;;12.50;8.13;;;;;;;;;;5100025;28;20038;-74
2022/08/23 10:41:28;;;;;;;10.65;7.18;;;;;;;;;;5099428;28;20103;-75
2022/08/23 10:43:57;;;;;;;9.77;6.22;;;;;;;;;;5097940;28;20072;-77
2022/08/23 10:46:25;;;;;;;67.65;16.00;;;;;;;;;;5087774;28;20025;-77
2022/08/23 10:48:56;;;;;;;15.07;7.05;;;;;;;;;;5087890;28;20016;-77
2022/08/23 10:51:40;;;;;;;8.98;6.03;;;;;;;;;;5087306;28;20400;-78
2022/08/23 10:54:08;;;;;;;24.67;8.20;;;;;;;;;;5085964;28;20119;-76
2022/08/23 10:56:35;;;;;;;12.38;6.47;;;;;;;;;;5102716;28;20091;-78
2022/08/23 10:59:19;;;;;;;9.80;6.50;;;;;;;;;;5109751;28;20020;-77
2022/08/23 11:01:49;;;;;;;20.38;7.60;;;;;;;;;;5103325;28;20172;-77
2022/08/23 11:04:21;;;;;;;177.48;28.05;;;;;;;;;;5078072;28;20050;-76
2022/08/23 11:06:49;;;;;;;112.50;24.17;;;;;;;;;;5094194;28;20038;-77
2022/08/23 11:09:18;;;;;;;15.85;6.35;;;;;;;;;;5095956;28;20761;-75
2022/08/23 11:11:48;;;;;;;10.15;6.15;;;;;;;;;;5096145;28;20043;-77
2022/08/23 11:14:26;;;;;;;24.33;8.73;;;;;;;;;;5095802;28;20024;-75
2022/08/23 11:16:57;;;;;;;62.38;17.27;;;;;;;;;;5095891;28;20095;-76
2022/08/23 11:19:43;;;;;;;371.20;72.18;;;;;;;;;;5095850;28;20020;-75
2022/08/23 11:22:14;;;;;;;51.47;15.20;;;;;;;;;;5089542;28;20062;-73
2022/08/23 11:25:10;;;;;;;52.23;14.50;;;;;;;;;;5094306;28;20028;-72
2022/08/23 11:27:40;;;;;;;55.75;13.98;;;;;;;;;;5078122;28;20400;-73
2022/08/23 11:30:25;;;;;;;9.70;6.47;;;;;;;;;;5096056;28;20050;-73
2022/08/23 11:32:51;;;;;;;9.57;5.55;;;;;;;;;;5095976;28;20032;-73
2022/08/23 11:35:38;;;;;;;9.70;6.25;;;;;;;;;;5094236;28;20035;-73
2022/08/23 11:38:05;;;;;;;8.57;6.18;;;;;;;;;;5096196;28;20019;-73
2022/08/23 11:40:49;;;;;;;11.80;7.47;;;;;;;;;;5095404;28;20392;-73
2022/08/23 11:43:24;;;;;;;9.20;6.30;;;;;;;;;;5093116;28;20081;-73
2022/08/23 11:45:50;;;;;;;29.98;8.95;;;;;;;;;;5093662;28;20468;-73
2022/08/23 11:48:19;;;;;;;19.67;6.93;;;;;;;;;;5093861;28;20020;-73
2022/08/23 11:50:57;;;;;;;10.88;6.00;;;;;;;;;;5092789;28;20058;-72
2022/08/23 11:53:29;;;;;;;215.93;39.10;;;;;;;;;;5093580;28;20361;-72
2022/08/23 11:55:55;;;;;;;;;;;;;;;;;;5094161;28;20022;-72
2022/08/23 11:58:22;;;;;;;292.58;53.35;;;;;;;;;;5094160;28;19904;-72
2022/08/23 12:01:05;;;;;;;87.00;15.82;;;;;;;;;;5095422;28;20452;-72
2022/08/23 12:03:37;;;;;;;10.75;5.90;;;;;;;;;;5094926;28;20032;-72
2022/08/23 12:06:06;;;;;;;30.23;9.13;;;;;;;;;;5095202;28;20048;-72
2022/08/23 12:08:54;;;;;;;13.40;6.68;;;;;;;;;;5095061;28;20487;-71
2022/08/23 12:11:21;;;;;;;14.10;6.95;;;;;;;;;;5094747;28;20032;-72
2022/08/23 12:13:49;;;;;;;9.75;6.50;;;;;;;;;;5094310;28;20074;-72
2022/08/23 12:16:15;;;;;;;10.60;6.60;;;;;;;;;;5094745;28;20020;-72
2022/08/23 12:18:47;;;;;;;9.10;5.85;;;;;;;;;;5094500;28;20024;-72
2022/08/23 12:21:18;;;;;;;8.95;6.15;;;;;;;;;;5094779;28;20027;-72
2022/08/23 12:23:49;;;;;;;34.15;12.20;;;;;;;;;;5095115;28;20123;-74
2022/08/23 12:26:30;;;;;;;12.38;6.38;;;;;;;;;;5093231;28;20099;-73
2022/08/23 12:29:06;;;;;;;15.02;8.02;;;;;;;;;;5095043;28;20129;-73
2022/08/23 12:31:49;;;;;;;27.20;8.60;;;;;;;;;;5094145;28;20549;-73
2022/08/23 12:34:27;;;;;;;10.10;5.72;;;;;;;;;;5095185;28;20081;-73
2022/08/23 12:36:53;;;;;;;52.17;12.75;;;;;;;;;;5094804;28;20024;-74
2022/08/23 12:39:19;;;;;;;25.42;7.97;;;;;;;;;;5094049;28;20024;-73
2022/08/23 12:42:06;;;;;;;9.27;5.97;;;;;;;;;;5093195;28;20024;-73
2022/08/23 12:44:32;;;;;;;17.63;6.43;;;;;;;;;;5094429;28;20024;-73
2022/08/23 12:47:09;;;;;;;14.95;6.75;;;;;;;;;;5094115;28;20027;-73
2022/08/23 12:49:35;;;;;;;8.48;5.53;;;;;;;;;;5094619;28;20024;-73
2022/08/23 12:55:16;;;;;;;9.60;5.47;;;;;;;;;;5094677;28;20086;-73
2022/08/23 12:57:43;;;;;;;7.15;4.97;;;;;;;;;;5094316;28;20066;-73
2022/08/23 13:00:16;;;;;;;27.90;9.20;;;;;;;;;;5093786;28;20542;-73
2022/08/23 13:02:45;;;;;;;24.42;9.55;;;;;;;;;;5094257;28;20078;-73
2022/08/23 13:05:14;;;;;;;10.02;5.75;;;;;;;;;;5092890;28;20210;-73
2022/08/23 13:07:40;;;;;;;21.77;7.72;;;;;;;;;;5093826;28;20153;-73
2022/08/23 13:10:08;;;;;;;9.63;5.57;;;;;;;;;;5094294;28;20383;-73
2022/08/23 13:12:35;;;;;;;7.80;4.88;;;;;;;;;;5094200;28;20075;-73
2022/08/23 13:15:03;;;;;;;15.60;6.38;;;;;;;;;;5093765;28;20052;-73
2022/08/23 13:17:31;;;;;;;19.75;5.78;;;;;;;;;;5093864;28;20028;-73
2022/08/23 13:20:06;;;;;;;46.72;11.32;;;;;;;;;;5094145;28;20136;-73
2022/08/23 13:22:52;;;;;;;48.22;14.13;;;;;;;;;;5093438;28;20020;-73
2022/08/23 13:25:27;;;;;;;25.10;9.05;;;;;;;;;;5094066;28;20086;-73
2022/08/23 13:27:55;;;;;;;16.48;6.18;;;;;;;;;;5093302;28;20479;-73
2022/08/23 13:30:21;;;;;;;27.27;7.65;;;;;;;;;;5092352;28;20024;-73
2022/08/23 13:32:48;;;;;;;6.88;4.40;;;;;;;;;;5092343;28;20056;-72
2022/08/23 13:35:34;;;;;;;6.80;4.32;;;;;;;;;;5093570;28;20023;-73
2022/08/23 13:38:12;;;;;;;142.15;25.92;;;;;;;;;;5093482;28;20032;-73
2022/08/23 13:40:51;;;;;;;9.95;4.65;;;;;;;;;;5092180;28;20073;-72
2022/08/23 13:43:20;;;;;;;7.88;3.40;;;;;;;;;;5091911;28;20027;-73
2022/08/23 13:45:51;;;;;;;5.35;3.33;;;;;;;;;;5093479;28;20020;-74
2022/08/23 13:48:20;;;;;;;7.45;3.47;;;;;;;;;;5093400;28;20418;-74
2022/08/23 13:50:47;;;;;;;8.68;2.80;;;;;;;;;;5093197;28;20388;-73
2022/08/23 13:53:13;;;;;;;5.60;2.67;;;;;;;;;;5093379;28;20472;-74
2022/08/23 13:55:42;;;;;;;4.07;2.70;;;;;;;;;;5093176;28;20031;-74
2022/08/23 13:58:27;;;;;;;4.93;2.70;;;;;;;;;;5092328;28;20047;-73
2022/08/23 14:00:53;;;;;;;10.70;4.20;;;;;;;;;;5093424;28;20024;-71
2022/08/23 14:03:19;;;;;;;6.85;2.67;;;;;;;;;;5092968;28;20476;-71
2022/08/23 14:05:46;;;;;;;4.80;2.75;;;;;;;;;;5093353;28;20024;-72
2022/08/23 14:08:12;;;;;;;5.38;2.63;;;;;;;;;;5093504;28;20035;-72
2022/08/23 14:10:38;;;;;;;176.75;27.25;;;;;;;;;;5091536;28;20036;-72
2022/08/23 14:13:05;;;;;;;122.53;23.20;;;;;;;;;;5093601;28;20028;-72
2022/08/23 14:15:31;;;;;;;44.25;9.32;;;;;;;;;;5093142;28;20029;-72
2022/08/23 14:17:58;;;;;;;136.73;24.15;;;;;;;;;;5091517;28;20032;-72
2022/08/23 14:20:24;;;;;;;30.42;6.55;;;;;;;;;;5093153;28;20035;-73
2022/08/23 14:22:51;;;;;;;67.20;13.55;;;;;;;;;;5093036;28;20495;-72
2022/08/23 14:25:17;;;;;;;197.77;30.50;;;;;;;;;;5092739;28;20028;-74
2022/08/23 14:27:45;;;;;;;267.33;45.45;;;;;;;;;;5093104;28;20101;-74
2022/08/23 14:30:18;;;;;;;13.20;3.33;;;;;;;;;;5093125;28;20027;-73
2022/08/23 14:32:44;;;;;;;4.47;2.65;;;;;;;;;;5092927;28;20059;-73
2022/08/23 14:35:10;;;;;;;31.30;6.05;;;;;;;;;;5093107;28;20024;-73
2022/08/23 14:37:36;;;;;;;39.20;6.90;;;;;;;;;;5093595;28;20036;-73
2022/08/23 14:40:03;;;;;;;21.60;4.18;;;;;;;;;;5096884;28;20016;-74
2022/08/23 14:42:30;;;;;;;20.45;4.35;;;;;;;;;;5095505;28;20058;-73
2022/08/23 14:44:56;;;;;;;7.75;2.85;;;;;;;;;;5096561;28;20139;-73
2022/08/23 14:47:29;;;;;;;11.02;4.07;;;;;;;;;;5098629;28;20406;-73
2022/08/23 14:49:55;;;;;;;8.25;3.20;;;;;;;;;;5095408;28;20024;-73
2022/08/23 14:52:21;;;;;;;14.95;3.65;;;;;;;;;;5096150;28;20048;-73
2022/08/23 14:54:47;;;;;;;16.45;4.82;;;;;;;;;;5096605;28;20028;-73
2022/08/23 14:57:14;;;;;;;12.70;4.30;;;;;;;;;;5096584;28;20099;-73
2022/08/23 14:59:40;;;;;;;10.10;4.55;;;;;;;;;;5096137;28;20056;-73
2022/08/23 15:02:06;;;;;;;9.05;4.63;;;;;;;;;;5096440;28;20021;-73
2022/08/23 15:05:26;;;;;;;9.40;3.95;;;;;;;;;;5091339;27;20406;-73
2022/08/23 15:07:52;;;;;;;7.80;4.55;;;;;;;;;;5090530;28;20476;-74
2022/08/23 15:10:18;;;;;;;8.63;4.50;;;;;;;;;;5090823;28;20488;-73
2022/08/23 15:12:44;;;;;;;8.57;4.38;;;;;;;;;;5090495;28;20052;-73
2022/08/23 15:15:12;;;;;;;8.50;3.95;;;;;;;;;;5090848;28;20119;-72
2022/08/23 15:17:44;;;;;;;7.93;3.97;;;;;;;;;;5090741;28;20024;-73
2022/08/23 15:20:11;;;;;;;10.30;4.70;;;;;;;;;;5090716;28;20058;-73
2022/08/23 15:24:02;;;;;;;5.80;3.83;;;;;;;;;;5071111;28;20399;-73
2022/08/23 15:26:30;;;;;;;7.35;4.30;;;;;;;;;;5069446;28;20033;-73
2022/08/23 15:28:56;;;;;;;7.75;3.60;;;;;;;;;;5070208;28;20048;-73
2022/08/23 15:31:22;;;;;;;7.35;4.00;;;;;;;;;;5069371;28;20411;-73
2022/08/23 15:33:48;;;;;;;6.97;4.13;;;;;;;;;;5068961;28;20116;-73
2022/08/23 15:36:15;;;;;;;8.32;4.40;;;;;;;;;;5070701;28;20100;-73
2022/08/23 15:38:42;;;;;;;7.88;4.25;;;;;;;;;;5069247;28;20025;-73
2022/08/23 15:43:53;;;;;;;6.70;3.92;;;;;;;;;;5112058;27;20764;-73
2022/08/23 15:46:21;;;;;;;7.20;4.63;;;;;;;;;;5111456;28;20032;-73
2022/08/23 15:49:07;;;;;;;6.95;3.97;;;;;;;;;;5110945;28;20071;-72
2022/08/23 15:51:33;;;;;;;7.00;3.65;;;;;;;;;;5101347;28;20101;-73
2022/08/23 15:54:00;;;;;;;7.90;4.80;;;;;;;;;;5111338;28;20020;-73
2022/08/23 15:56:37;;;;;;;7.25;3.83;;;;;;;;;;5110881;28;20069;-73
2022/08/23 16:00:35;;;;;;;7.40;4.10;;;;;;;;;;5070974;28;20423;-73
2022/08/23 16:03:01;;;;;;;6.63;3.60;;;;;;;;;;5070318;28;20051;-73
2022/08/23 16:05:27;;;;;;;5.63;3.20;;;;;;;;;;5070617;28;20033;-73
2022/08/23 16:07:55;;;;;;;5.90;3.45;;;;;;;;;;5070652;28;20025;-73
2022/08/23 16:10:21;;;;;;;9.02;3.63;;;;;;;;;;5070124;28;20388;-73
2022/08/23 16:12:47;;;;;;;7.47;4.22;;;;;;;;;;5070514;28;20028;-73
2022/08/23 16:15:14;;;;;;;6.18;3.90;;;;;;;;;;5070553;28;20100;-73
2022/08/23 16:17:40;;;;;;;6.25;3.72;;;;;;;;;;5070121;28;20025;-74
2022/08/23 16:20:09;;;;;;;7.97;4.43;;;;;;;;;;5070331;28;20162;-73
2022/08/23 16:22:35;;;;;;;8.07;4.40;;;;;;;;;;5070355;28;20465;-73
2022/08/23 16:25:01;;;;;;;7.90;3.95;;;;;;;;;;5069764;28;20029;-73